Time;durP1;ratioP1;P1;durP2;ratioP2;P2;SDS_P1;SDS_P2;PMS_P1;PMS_P2;Temp;Humidity;BMP_temperature;BMP_pressure;BME280_temperature;BME280_humidity;BME280_pressure;Samples;Min_cycle;Max_cycle;Signal;HPM_P1;HPM_P2
2023/04/15 00:02:17;;;;;;;;;11.00;8.00;;;;;;;;6488593;39;8999;-58
2023/04/15 00:08:23;;;;;;;;;4.33;4.33;;;;;;;;6489589;46;8873;-57
2023/04/15 00:14:28;;;;;;;;;7.33;6.33;;;;;;;;6490248;39;9545;-58
2023/04/15 00:20:33;;;;;;;;;7.67;7.00;;;;;;;;6491089;39;9510;-57
2023/04/15 00:26:38;;;;;;;;;6.67;6.67;;;;;;;;6490203;31;8911;-56
2023/04/15 00:32:42;;;;;;;;;8.75;8.50;;;;;;;;6490249;39;8910;-57
2023/04/15 00:38:50;;;;;;;;;12.00;10.00;;;;;;;;6490447;39;8959;-58
2023/04/15 00:44:54;;;;;;;;;7.75;7.00;;;;;;;;6489506;46;8920;-57
2023/04/15 00:50:57;;;;;;;;;12.00;12.00;;;;;;;;6490553;39;9034;-56
2023/04/15 00:57:00;;;;;;;;;13.00;13.00;;;;;;;;6489190;39;8988;-58
2023/04/15 01:03:04;;;;;;;;;17.25;13.00;;;;;;;;6490397;39;8987;-56
2023/04/15 01:09:08;;;;;;;;;11.67;11.67;;;;;;;;6490226;46;8862;-57
2023/04/15 01:15:13;;;;;;;;;13.50;13.50;;;;;;;;6488918;46;8915;-59
2023/04/15 01:21:17;;;;;;;;;13.25;12.00;;;;;;;;6489606;39;8845;-57
2023/04/15 01:27:21;;;;;;;;;17.75;15.25;;;;;;;;6489799;39;8848;-57
2023/04/15 01:33:24;;;;;;;;;21.75;16.75;;;;;;;;6489035;46;8939;-58
2023/04/15 01:39:45;;;;;;;;;14.25;13.00;;;;;;;;6488724;46;9079;-58
2023/04/15 01:45:52;;;;;;;;;24.25;19.25;;;;;;;;6488465;39;8901;-57
2023/04/15 01:51:54;;;;;;;;;20.50;17.75;;;;;;;;6488161;39;8905;-58
2023/04/15 01:58:00;;;;;;;;;18.25;17.75;;;;;;;;6489294;31;8878;-57
2023/04/15 02:04:05;;;;;;;;;18.25;18.25;;;;;;;;6487913;39;8908;-57
2023/04/15 02:10:09;;;;;;;;;22.00;20.50;;;;;;;;6488547;31;8940;-57
2023/04/15 02:16:17;;;;;;;;;27.25;24.00;;;;;;;;6487926;46;8996;-58
2023/04/15 02:22:22;;;;;;;;;20.50;19.75;;;;;;;;6487862;46;8881;-57
2023/04/15 02:28:28;;;;;;;;;24.00;20.25;;;;;;;;6488153;39;8865;-58
2023/04/15 02:34:30;;;;;;;;;19.00;19.00;;;;;;;;6487532;46;8952;-59
2023/04/15 02:40:35;;;;;;;;;21.00;21.00;;;;;;;;6487900;46;8948;-58
2023/04/15 02:46:40;;;;;;;;;20.00;19.00;;;;;;;;6488907;31;8913;-57
2023/04/15 02:52:43;;;;;;;;;17.25;17.25;;;;;;;;6488622;39;9585;-56
2023/04/15 02:58:49;;;;;;;;;19.00;17.00;;;;;;;;6489021;31;9083;-59
2023/04/15 03:04:56;;;;;;;;;21.00;19.50;;;;;;;;6487936;39;9092;-58
2023/04/15 03:11:01;;;;;;;;;24.00;19.75;;;;;;;;6487608;31;8911;-59
2023/04/15 03:17:04;;;;;;;;;22.25;21.25;;;;;;;;6487175;39;8955;-58
2023/04/15 03:23:09;;;;;;;;;21.75;18.50;;;;;;;;6487661;31;8973;-57
2023/04/15 03:29:13;;;;;;;;;22.75;19.25;;;;;;;;6307897;36;10000701;-57
2023/04/15 03:35:16;;;;;;;;;20.00;19.75;;;;;;;;6594636;36;8942;-57
2023/04/15 03:41:19;;;;;;;;;21.25;18.50;;;;;;;;6919591;36;9014;-57
2023/04/15 03:47:22;;;;;;;;;20.00;16.25;;;;;;;;6488079;39;8851;-58
2023/04/15 03:53:24;;;;;;;;;15.50;12.75;;;;;;;;6487518;39;8913;-57
2023/04/15 03:59:28;;;;;;;;;16.25;14.00;;;;;;;;6486434;39;9533;-57
2023/04/15 04:05:30;;;;;;;;;18.00;13.50;;;;;;;;6487739;39;9000;-59
2023/04/15 04:11:33;;;;;;;;;16.75;15.50;;;;;;;;6487732;39;9538;-57
2023/04/15 04:17:36;;;;;;;;;15.25;14.25;;;;;;;;6486516;47;8862;-58
2023/04/15 04:23:39;;;;;;;;;13.50;13.50;;;;;;;;6506050;36;8880;-57
2023/04/15 04:29:43;;;;;;;;;16.00;14.25;;;;;;;;6487006;31;8884;-57
